This is the latest recevied weather packets stored in our database for station/object GW1596. If no packets are shown the sender has not sent any weather packets the latest 10 day(s).
| Time | Temp. | Humidity | Pressure | Rain* | Wind** | Luminosity | Snow |
|---|---|---|---|---|---|---|---|
| 1777175664 | 11.67° C | 94% | 1016.2 hPa | 3.81 mm | - | - | - |
| 1777174570 | 11.11° C | 94% | 1016.2 hPa | 3.81 mm | - | - | - |
| 1777170649 | 13.89° C | 80% | 1015.5 hPa | 3.81 mm | - | - | - |
| 1777169539 | 14.44° C | 79% | 1015.5 hPa | 3.81 mm | - | - | - |
| 1777169191 | 15° C | 77% | 1015.5 hPa | 3.81 mm | - | - | - |
| 1777167746 | 15.56° C | 74% | 1015.5 hPa | 3.81 mm | - | - | - |
| 1777165943 | 16.67° C | 71% | 1014.9 hPa | 3.81 mm | - | - | - |
| 1777162340 | 18.89° C | 67% | 1013.5 hPa | 3.81 mm | - | - | - |
| 1777161994 | 19.44° C | 65% | 1013.2 hPa | 3.81 mm | - | - | - |
| 1777161617 | 19.44° C | 64% | 1013.2 hPa | 3.81 mm | - | - | - |
| 1777160547 | 20° C | 63% | 1013.2 hPa | 3.81 mm | - | - | - |
| 1777160189 | 20° C | 63% | 1013.2 hPa | 3.81 mm | - | - | - |
| 1777158743 | 20.56° C | 61% | 1012.8 hPa | 3.81 mm | - | - | - |
| 1777157679 | 21.11° C | 61% | 1012.5 hPa | 3.81 mm | - | - | - |
| 1777150815 | 22.22° C | 61% | 1011.5 hPa | 3.81 mm | - | - | - |
| 1777149388 | 22.78° C | 59% | 1011.5 hPa | 3.81 mm | - | - | - |
| 1777149020 | 21.67° C | 62% | 1011.5 hPa | 3.81 mm | - | - | - |
| 1777148655 | 21.67° C | 61% | 1011.8 hPa | 3.81 mm | - | - | - |
| 1777147975 | 21.11° C | 66% | 1011.8 hPa | 3.81 mm | - | - | - |
| 1777147250 | 21.11° C | 64% | 1011.5 hPa | 3.81 mm | - | - | - |
| 1777145776 | 21.67° C | 63% | 1011.8 hPa | 3.81 mm | - | - | - |
| 1777143993 | 21.11° C | 70% | 1011.8 hPa | 3.81 mm | - | - | - |
| 1777143284 | 20.56° C | 81% | 1011.8 hPa | 3.81 mm | - | - | - |
| 1777142900 | 20° C | 84% | 1012.1 hPa | 3.81 mm | - | - | - |
| 1777140042 | 18.89° C | 90% | 1012.1 hPa | 3.81 mm | - | - | - |
* Rain since midnight (hover to see other rain measurements)
** Current wind speed in m/s (hover to see current wind gust speed)